createdAt,value
2018-06-03T00:00:41.109Z,100.00
2018-06-03T00:03:08.114Z,100.00
2018-06-03T00:05:35.129Z,100.00
2018-06-03T00:08:02.117Z,100.00
2018-06-03T00:10:29.138Z,100.00
2018-06-03T00:12:56.156Z,100.00
2018-06-03T00:15:23.156Z,100.00
2018-06-03T00:17:50.177Z,100.00
2018-06-03T00:20:27.507Z,100.00
2018-06-03T00:22:54.560Z,100.00
2018-06-03T00:25:21.581Z,100.00
2018-06-03T00:27:48.678Z,100.00
2018-06-03T00:30:15.709Z,100.00
2018-06-03T00:32:42.709Z,100.00
2018-06-03T00:35:09.746Z,100.00
2018-06-03T00:37:36.768Z,100.00
2018-06-03T00:40:03.809Z,100.00
2018-06-03T00:42:30.812Z,100.00
2018-06-03T00:44:57.830Z,100.00
2018-06-03T00:47:24.829Z,100.00
2018-06-03T00:49:51.881Z,100.00
2018-06-03T00:52:18.954Z,100.00
2018-06-03T00:54:46.046Z,100.00
2018-06-03T00:57:13.053Z,100.00
2018-06-03T00:59:40.062Z,100.00
2018-06-03T01:02:07.527Z,100.00
2018-06-03T01:04:34.521Z,100.00
2018-06-03T01:07:01.513Z,100.00
2018-06-03T01:09:28.758Z,100.00
2018-06-03T01:11:55.773Z,100.00
2018-06-03T01:14:23.108Z,100.00
2018-06-03T01:16:50.131Z,100.00
2018-06-03T01:19:17.322Z,100.00
2018-06-03T01:21:44.529Z,100.00
2018-06-03T01:24:11.737Z,100.00
2018-06-03T01:26:38.801Z,100.00
2018-06-03T01:29:06.581Z,100.00
2018-06-03T01:31:33.584Z,100.00
2018-06-03T01:34:00.647Z,100.00
2018-06-03T01:36:27.644Z,100.00
2018-06-03T01:38:54.645Z,100.00
2018-06-03T01:41:21.661Z,100.00
2018-06-03T01:43:48.668Z,100.00
2018-06-03T01:46:15.669Z,100.00
2018-06-03T01:48:42.700Z,100.00
2018-06-03T01:51:09.718Z,100.00
2018-06-03T01:53:36.721Z,100.00
2018-06-03T01:56:03.730Z,100.00
2018-06-03T01:58:30.736Z,100.00
2018-06-03T02:00:57.725Z,100.00
2018-06-03T02:03:24.897Z,100.00
2018-06-03T02:05:51.978Z,100.00
2018-06-03T02:08:18.991Z,100.00
2018-06-03T02:10:46.125Z,100.00
2018-06-03T02:13:13.119Z,100.00
2018-06-03T02:15:40.125Z,100.00
2018-06-03T02:18:07.145Z,100.00
2018-06-03T02:20:34.151Z,100.00
2018-06-03T02:23:01.237Z,100.00
2018-06-03T02:25:28.241Z,100.00
2018-06-03T02:27:55.285Z,100.00
2018-06-03T02:30:22.299Z,100.00
2018-06-03T02:32:49.311Z,100.00
2018-06-03T02:35:16.334Z,100.00
2018-06-03T02:37:43.420Z,100.00
2018-06-03T02:40:10.445Z,100.00
2018-06-03T02:42:37.481Z,100.00
2018-06-03T02:45:04.793Z,100.00
2018-06-03T02:47:31.801Z,100.00
2018-06-03T02:49:58.846Z,100.00
2018-06-03T02:52:25.941Z,100.00
2018-06-03T02:54:53.055Z,100.00
2018-06-03T02:57:20.097Z,100.00
2018-06-03T02:59:47.747Z,100.00
2018-06-03T03:02:14.833Z,100.00
2018-06-03T03:04:41.832Z,100.00
2018-06-03T03:07:08.947Z,100.00
2018-06-03T03:09:35.941Z,100.00
2018-06-03T03:12:02.971Z,100.00
2018-06-03T03:14:29.978Z,100.00
2018-06-03T03:16:57.046Z,100.00
2018-06-03T03:19:24.038Z,100.00
2018-06-03T03:21:51.238Z,100.00
2018-06-03T03:24:18.245Z,100.00
2018-06-03T03:26:45.249Z,100.00
2018-06-03T03:29:12.380Z,100.00
2018-06-03T03:31:39.477Z,100.00
2018-06-03T03:34:06.485Z,100.00
2018-06-03T03:36:33.493Z,100.00
2018-06-03T03:39:00.592Z,100.00
2018-06-03T03:41:27.701Z,100.00
2018-06-03T03:43:54.741Z,100.00
2018-06-03T03:46:21.743Z,100.00
2018-06-03T03:48:48.761Z,100.00
2018-06-03T03:51:15.854Z,100.00
2018-06-03T03:53:42.856Z,100.00
2018-06-03T03:56:09.874Z,100.00
2018-06-03T03:58:37.075Z,100.00
2018-06-03T04:01:04.253Z,100.00
2018-06-03T04:03:31.314Z,100.00
2018-06-03T04:05:58.413Z,100.00
2018-06-03T04:08:25.521Z,100.00
2018-06-03T04:10:52.565Z,100.00
2018-06-03T04:13:20.007Z,100.00
2018-06-03T04:15:46.970Z,100.00
2018-06-03T04:18:13.970Z,100.00
2018-06-03T04:20:41.061Z,100.00
2018-06-03T04:23:08.062Z,100.00
2018-06-03T04:25:35.107Z,100.00
2018-06-03T04:28:02.121Z,100.00
2018-06-03T04:30:29.129Z,100.00
2018-06-03T04:32:56.146Z,100.00
2018-06-03T04:35:23.150Z,100.00
2018-06-03T04:37:50.257Z,100.00
2018-06-03T04:40:17.265Z,100.00
2018-06-03T04:42:44.357Z,100.00
2018-06-03T04:45:11.476Z,100.00
2018-06-03T04:47:38.473Z,100.00
2018-06-03T04:50:05.492Z,100.00
2018-06-03T04:52:32.513Z,100.00
2018-06-03T04:54:59.538Z,100.00
2018-06-03T04:57:26.626Z,100.00
2018-06-03T04:59:53.670Z,100.00
2018-06-03T05:02:20.673Z,100.00
2018-06-03T05:04:47.684Z,100.00
2018-06-03T05:07:14.793Z,100.00
2018-06-03T05:09:41.785Z,100.00
2018-06-03T05:12:08.786Z,100.00
2018-06-03T05:14:35.968Z,100.00
2018-06-03T05:17:02.983Z,100.00
2018-06-03T05:19:29.996Z,100.00
2018-06-03T05:21:57.121Z,100.00
2018-06-03T05:24:24.213Z,100.00
2018-06-03T05:26:51.304Z,100.00
2018-06-03T05:29:18.341Z,100.00
2018-06-03T05:31:45.365Z,100.00
2018-06-03T05:34:12.393Z,100.00
2018-06-03T05:36:39.873Z,100.00
2018-06-03T05:39:07.269Z,100.00
2018-06-03T05:41:34.367Z,100.00
2018-06-03T05:44:01.408Z,100.00
2018-06-03T05:46:28.441Z,100.00
2018-06-03T05:48:55.449Z,100.00
2018-06-03T05:51:22.472Z,100.00
2018-06-03T05:53:49.480Z,100.00
2018-06-03T05:56:16.829Z,100.00
2018-06-03T05:58:43.959Z,100.00
2018-06-03T06:01:11.017Z,100.00
2018-06-03T06:03:38.112Z,100.00
2018-06-03T06:06:05.126Z,100.00
2018-06-03T06:08:32.136Z,100.00
2018-06-03T06:10:59.159Z,100.00
2018-06-03T06:13:26.164Z,100.00
2018-06-03T06:15:53.204Z,100.00
2018-06-03T06:18:20.284Z,100.00
2018-06-03T06:20:47.289Z,100.00
2018-06-03T06:23:14.397Z,100.00
2018-06-03T06:25:41.508Z,100.00
2018-06-03T06:28:08.521Z,100.00
2018-06-03T06:30:35.641Z,100.00
2018-06-03T06:33:02.978Z,100.00
2018-06-03T06:35:30.067Z,100.00
2018-06-03T06:37:57.375Z,100.00
2018-06-03T06:40:24.373Z,100.00
2018-06-03T06:42:51.385Z,100.00
2018-06-03T06:45:18.498Z,100.00
2018-06-03T06:47:45.986Z,100.00
2018-06-03T06:50:13.091Z,100.00
2018-06-03T06:52:40.352Z,100.00
2018-06-03T06:55:07.474Z,100.00
2018-06-03T06:57:34.740Z,100.00
2018-06-03T07:00:01.875Z,100.00
2018-06-03T07:02:28.887Z,100.00
2018-06-03T07:04:55.898Z,100.00
2018-06-03T07:07:23.290Z,100.00
2018-06-03T07:09:51.608Z,100.00
2018-06-03T07:12:19.980Z,100.00
2018-06-03T07:14:51.011Z,100.00
2018-06-03T07:17:18.011Z,100.00
2018-06-03T07:19:45.025Z,100.00
2018-06-03T07:22:12.481Z,100.00
2018-06-03T07:24:39.869Z,100.00
2018-06-03T07:27:07.036Z,100.00
2018-06-03T07:29:34.061Z,100.00
2018-06-03T07:32:01.182Z,100.00
2018-06-03T07:34:28.398Z,100.00
2018-06-03T07:36:55.510Z,100.00
2018-06-03T07:39:22.512Z,100.00
2018-06-03T07:41:49.533Z,100.00
2018-06-03T07:44:16.546Z,100.00
2018-06-03T07:46:43.679Z,100.00
2018-06-03T07:49:10.784Z,100.00
2018-06-03T07:51:37.885Z,100.00
2018-06-03T07:54:05.043Z,100.00
2018-06-03T07:56:32.202Z,100.00
2018-06-03T07:58:59.385Z,100.00
2018-06-03T08:01:26.472Z,100.00
2018-06-03T08:03:53.507Z,100.00
2018-06-03T08:06:20.593Z,100.00
2018-06-03T08:08:47.593Z,100.00
2018-06-03T08:11:14.635Z,99.64
2018-06-03T08:13:41.660Z,97.98
2018-06-03T08:16:08.651Z,98.49
2018-06-03T08:18:35.766Z,98.73
2018-06-03T08:21:02.863Z,100.00
2018-06-03T08:23:30.058Z,98.86
2018-06-03T08:25:57.053Z,96.99
2018-06-03T08:28:24.143Z,96.91
2018-06-03T08:30:51.382Z,97.89
2018-06-03T08:33:18.457Z,98.61
2018-06-03T08:35:45.473Z,96.02
2018-06-03T08:38:12.585Z,98.53
2018-06-03T08:40:39.603Z,94.96
2018-06-03T08:43:06.706Z,95.26
2018-06-03T08:45:33.727Z,94.92
2018-06-03T08:48:00.753Z,94.29
2018-06-03T08:50:27.778Z,91.67
2018-06-03T08:52:54.846Z,91.47
2018-06-03T08:55:21.983Z,91.26
2018-06-03T08:57:48.997Z,91.99
2018-06-03T09:00:16.014Z,93.34
2018-06-03T09:02:43.032Z,94.21
2018-06-03T09:05:10.241Z,90.08
2018-06-03T09:07:37.245Z,91.14
2018-06-03T09:10:04.265Z,90.21
2018-06-03T09:12:31.389Z,89.21
2018-06-03T09:14:58.510Z,89.89
2018-06-03T09:17:25.590Z,88.94
2018-06-03T09:19:52.669Z,90.55
2018-06-03T09:22:19.676Z,89.81
2018-06-03T09:24:46.693Z,88.77
2018-06-03T09:27:13.877Z,88.19
2018-06-03T09:29:40.877Z,89.29
2018-06-03T09:32:08.049Z,89.62
2018-06-03T09:34:35.073Z,89.58
2018-06-03T09:37:02.142Z,88.43
2018-06-03T09:39:29.318Z,89.08
2018-06-03T09:41:56.446Z,88.15
2018-06-03T09:44:23.457Z,88.54
2018-06-03T09:46:50.475Z,88.09
2018-06-03T09:49:17.473Z,89.10
2018-06-03T09:51:44.501Z,88.09
2018-06-03T09:54:14.277Z,87.27
2018-06-03T09:56:41.396Z,85.96
2018-06-03T09:59:08.458Z,84.23
2018-06-03T10:01:35.473Z,84.64
2018-06-03T10:04:02.576Z,84.48
2018-06-03T10:06:29.602Z,84.37
2018-06-03T10:08:56.618Z,84.94
2018-06-03T10:11:23.634Z,83.03
2018-06-03T10:13:50.707Z,81.09
2018-06-03T10:16:17.811Z,81.09
2018-06-03T10:18:45.260Z,80.98
2018-06-03T10:21:12.280Z,82.23
2018-06-03T10:23:39.661Z,80.71
2018-06-03T10:26:06.665Z,80.29
2018-06-03T10:28:33.666Z,80.08
2018-06-03T10:31:00.698Z,80.65
2018-06-03T10:33:27.725Z,79.00
2018-06-03T10:35:54.813Z,81.61
2018-06-03T10:38:21.929Z,84.52
2018-06-03T10:40:48.934Z,80.87
2018-06-03T10:43:16.010Z,81.65
2018-06-03T10:45:43.146Z,81.28
2018-06-03T10:48:10.161Z,79.65
2018-06-03T10:50:37.162Z,78.09
2018-06-03T10:53:04.224Z,78.97
2018-06-03T10:55:31.222Z,79.09
2018-06-03T10:57:58.330Z,80.58
2018-06-03T11:00:25.337Z,79.08
2018-06-03T11:02:52.455Z,79.19
2018-06-03T11:05:19.679Z,79.75
2018-06-03T11:07:46.678Z,81.50
2018-06-03T11:10:13.770Z,80.63
2018-06-03T11:12:40.788Z,82.80
2018-06-03T11:15:07.805Z,84.21
2018-06-03T11:17:34.810Z,84.23
2018-06-03T11:20:01.851Z,84.84
2018-06-03T11:22:28.889Z,84.93
2018-06-03T11:24:56.008Z,84.07
2018-06-03T11:27:23.281Z,84.17
2018-06-03T11:29:50.285Z,82.14
2018-06-03T11:32:17.394Z,82.52
2018-06-03T11:34:44.502Z,83.65
2018-06-03T11:37:11.493Z,82.06
2018-06-03T11:39:38.500Z,81.57
2018-06-03T11:42:05.584Z,82.17
2018-06-03T11:44:32.576Z,81.57
2018-06-03T11:46:59.676Z,82.71
2018-06-03T11:49:26.837Z,83.46
2018-06-03T11:51:53.829Z,82.97
2018-06-03T11:54:20.837Z,83.23
2018-06-03T11:56:59.639Z,83.14
2018-06-03T11:59:38.649Z,83.64
2018-06-03T12:02:05.720Z,83.11
2018-06-03T12:04:32.717Z,82.50
2018-06-03T12:06:59.721Z,82.47
2018-06-03T12:09:26.825Z,83.26
2018-06-03T12:11:53.837Z,83.73
2018-06-03T12:14:20.843Z,81.62
2018-06-03T12:16:47.935Z,81.79
2018-06-03T12:19:15.119Z,81.50
2018-06-03T12:21:42.119Z,80.40
2018-06-03T12:24:09.130Z,81.15
2018-06-03T12:26:36.137Z,80.20
2018-06-03T12:29:03.315Z,78.01
2018-06-03T12:31:30.429Z,79.94
2018-06-03T12:33:57.431Z,80.54
2018-06-03T12:36:24.475Z,79.72
2018-06-03T12:38:51.537Z,80.23
2018-06-03T12:41:18.553Z,79.92
2018-06-03T12:43:45.766Z,79.27
2018-06-03T12:46:12.777Z,78.68
2018-06-03T12:48:39.781Z,78.49
2018-06-03T12:51:06.828Z,80.71
2018-06-03T12:53:33.900Z,79.76
2018-06-03T12:56:00.904Z,79.16
2018-06-03T12:58:28.010Z,79.78
2018-06-03T13:00:55.065Z,79.63
2018-06-03T13:03:22.098Z,78.42
2018-06-03T13:05:49.590Z,80.00
2018-06-03T13:08:16.679Z,79.26
2018-06-03T13:10:43.697Z,78.75
2018-06-03T13:13:10.812Z,79.70
2018-06-03T13:15:37.809Z,77.31
2018-06-03T13:18:04.863Z,77.37
2018-06-03T13:20:31.854Z,76.79
2018-06-03T13:22:58.853Z,78.48
2018-06-03T13:25:25.946Z,79.01
2018-06-03T13:27:53.754Z,77.84
2018-06-03T13:30:20.771Z,77.03
2018-06-03T13:32:47.905Z,75.14
2018-06-03T13:35:15.014Z,77.33
2018-06-03T13:37:42.145Z,75.85
2018-06-03T13:40:09.150Z,75.37
2018-06-03T13:42:36.317Z,77.76
2018-06-03T13:45:03.453Z,74.98
2018-06-03T13:47:30.461Z,74.85
2018-06-03T13:49:57.478Z,74.99
2018-06-03T13:52:24.560Z,75.82
2018-06-03T13:54:51.713Z,77.25
2018-06-03T13:57:18.811Z,73.92
2018-06-03T13:59:45.860Z,73.99
2018-06-03T14:02:12.960Z,74.25
2018-06-03T14:04:40.014Z,71.46
2018-06-03T14:07:07.049Z,71.91
2018-06-03T14:09:34.066Z,71.87
2018-06-03T14:12:01.092Z,73.19
2018-06-03T14:14:28.235Z,71.85
2018-06-03T14:16:55.337Z,72.77
2018-06-03T14:19:22.372Z,73.03
2018-06-03T14:21:49.450Z,75.00
2018-06-03T14:24:16.624Z,74.22
2018-06-03T14:26:43.812Z,73.73
2018-06-03T14:29:11.119Z,74.05
2018-06-03T14:31:38.135Z,74.29
2018-06-03T14:34:05.261Z,75.93
2018-06-03T14:36:32.270Z,75.44
2018-06-03T14:38:59.261Z,76.70
2018-06-03T14:41:26.322Z,76.14
2018-06-03T14:43:53.422Z,75.41
2018-06-03T14:46:20.626Z,75.25
2018-06-03T14:48:47.635Z,74.08
2018-06-03T14:51:14.713Z,73.50
2018-06-03T14:53:41.849Z,74.50
2018-06-03T14:56:08.938Z,75.70
2018-06-03T14:58:35.941Z,75.82
2018-06-03T15:01:02.991Z,74.21
2018-06-03T15:03:29.990Z,75.67
2018-06-03T15:05:57.081Z,77.20
2018-06-03T15:08:24.178Z,75.71
2018-06-03T15:10:51.277Z,76.32
2018-06-03T15:13:18.377Z,76.05
2018-06-03T15:15:45.431Z,77.86
2018-06-03T15:18:12.430Z,78.25
2018-06-03T15:20:39.533Z,75.48
2018-06-03T15:23:06.557Z,76.75
2018-06-03T15:25:33.661Z,75.94
2018-06-03T15:28:00.682Z,76.63
2018-06-03T15:30:27.676Z,75.79
2018-06-03T15:32:54.864Z,76.13
2018-06-03T15:35:21.872Z,78.33
2018-06-03T15:37:48.977Z,75.42
2018-06-03T15:40:16.069Z,76.07
2018-06-03T15:42:43.077Z,74.75
2018-06-03T15:45:10.111Z,77.23
2018-06-03T15:47:37.110Z,75.87
2018-06-03T15:50:04.146Z,74.92
2018-06-03T15:52:31.546Z,75.88
2018-06-03T15:54:58.645Z,76.75
2018-06-03T15:57:25.759Z,76.71
2018-06-03T15:59:52.867Z,76.41
2018-06-03T16:02:19.903Z,77.30
2018-06-03T16:04:46.901Z,76.62
2018-06-03T16:07:13.966Z,78.35
2018-06-03T16:09:40.933Z,77.17
2018-06-03T16:12:07.947Z,77.41
2018-06-03T16:14:35.008Z,77.76
2018-06-03T16:17:02.075Z,77.13
2018-06-03T16:19:29.153Z,78.36
2018-06-03T16:21:56.156Z,77.50
2018-06-03T16:24:23.413Z,78.97
2018-06-03T16:26:50.411Z,77.12
2018-06-03T16:29:17.563Z,77.09
2018-06-03T16:31:44.598Z,76.07
2018-06-03T16:34:11.683Z,79.47
2018-06-03T16:36:38.698Z,75.18
2018-06-03T16:39:06.529Z,75.03
2018-06-03T16:41:33.645Z,75.23
2018-06-03T16:44:00.685Z,73.22
2018-06-03T16:46:27.705Z,71.29
2018-06-03T16:48:54.825Z,71.91
2018-06-03T16:51:21.942Z,71.34
2018-06-03T16:53:48.936Z,72.90
2018-06-03T16:56:16.261Z,73.03
2018-06-03T16:58:43.656Z,73.42
2018-06-03T17:01:10.783Z,72.59
2018-06-03T17:03:37.894Z,73.86
2018-06-03T17:06:04.909Z,71.80
2018-06-03T17:08:31.909Z,72.69
2018-06-03T17:10:59.300Z,73.75
2018-06-03T17:13:26.327Z,72.46
2018-06-03T17:15:53.338Z,71.21
2018-06-03T17:18:20.462Z,72.25
2018-06-03T17:20:47.594Z,69.80
2018-06-03T17:23:14.604Z,71.94
2018-06-03T17:25:41.806Z,70.28
2018-06-03T17:28:09.004Z,71.86
2018-06-03T17:30:36.044Z,71.74
2018-06-03T17:33:03.077Z,70.28
2018-06-03T17:35:30.134Z,71.09
2018-06-03T17:37:57.214Z,70.93
2018-06-03T17:40:24.348Z,71.28
2018-06-03T17:42:51.418Z,70.53
2018-06-03T17:45:18.445Z,71.42
2018-06-03T17:47:45.558Z,71.18
2018-06-03T17:50:12.645Z,71.07
2018-06-03T17:52:39.667Z,71.25
2018-06-03T17:55:06.749Z,71.76
2018-06-03T17:57:33.749Z,72.26
2018-06-03T18:00:00.797Z,71.51
2018-06-03T18:02:27.812Z,72.71
2018-06-03T18:04:54.897Z,73.08
2018-06-03T18:07:21.998Z,72.91
2018-06-03T18:09:49.005Z,73.38
2018-06-03T18:12:16.018Z,72.89
2018-06-03T18:14:43.046Z,73.43
2018-06-03T18:17:10.061Z,73.72
2018-06-03T18:19:37.166Z,73.88
2018-06-03T18:22:04.195Z,73.58
2018-06-03T18:24:31.482Z,74.49
2018-06-03T18:26:58.487Z,74.58
2018-06-03T18:29:25.617Z,74.95
2018-06-03T18:31:52.606Z,74.68
2018-06-03T18:34:19.634Z,74.16
2018-06-03T18:36:46.732Z,74.90
2018-06-03T18:39:13.980Z,75.16
2018-06-03T18:41:41.174Z,75.43
2018-06-03T18:44:08.265Z,75.17
2018-06-03T18:46:35.301Z,75.49
2018-06-03T18:49:02.323Z,75.49
2018-06-03T18:51:29.444Z,75.56
2018-06-03T18:53:56.450Z,76.62
2018-06-03T18:56:23.543Z,76.37
2018-06-03T18:58:50.689Z,76.97
2018-06-03T19:01:17.824Z,77.12
2018-06-03T19:03:44.918Z,77.11
2018-06-03T19:06:12.007Z,77.10
2018-06-03T19:08:39.013Z,78.09
2018-06-03T19:11:06.163Z,78.08
2018-06-03T19:13:40.007Z,78.28
2018-06-03T19:16:06.993Z,78.23
2018-06-03T19:18:34.059Z,79.11
2018-06-03T19:21:01.042Z,78.78
2018-06-03T19:23:28.169Z,79.49
2018-06-03T19:25:55.168Z,79.55
2018-06-03T19:28:22.159Z,79.20
2018-06-03T19:30:49.265Z,79.96
2018-06-03T19:33:16.484Z,79.67
2018-06-03T19:35:43.498Z,80.51
2018-06-03T19:38:10.585Z,80.44
2018-06-03T19:40:37.773Z,80.60
2018-06-03T19:43:04.749Z,81.44
2018-06-03T19:45:31.763Z,81.96
2018-06-03T19:47:58.801Z,83.08
2018-06-03T19:50:26.040Z,83.00
2018-06-03T19:52:53.157Z,82.90
2018-06-03T19:55:20.160Z,82.60
2018-06-03T19:57:47.356Z,83.05
2018-06-03T20:00:14.349Z,84.59
2018-06-03T20:02:41.382Z,85.92
2018-06-03T20:05:08.488Z,87.11
2018-06-03T20:07:35.496Z,87.44
2018-06-03T20:10:02.521Z,87.56
2018-06-03T20:12:29.721Z,87.16
2018-06-03T20:14:56.757Z,86.05
2018-06-03T20:17:23.779Z,86.56
2018-06-03T20:19:50.912Z,86.59
2018-06-03T20:22:18.011Z,86.73
2018-06-03T20:24:45.005Z,85.79
2018-06-03T20:27:12.041Z,87.96
2018-06-03T20:29:39.061Z,87.18
2018-06-03T20:32:06.171Z,86.87
2018-06-03T20:34:33.303Z,87.51
2018-06-03T20:37:00.308Z,87.23
2018-06-03T20:39:27.389Z,88.74
2018-06-03T20:41:54.555Z,89.05
2018-06-03T20:44:21.553Z,88.99
2018-06-03T20:46:48.561Z,89.62
2018-06-03T20:49:15.581Z,89.63
2018-06-03T20:51:42.686Z,90.13
2018-06-03T20:54:09.790Z,90.47
2018-06-03T20:56:37.088Z,90.82
2018-06-03T20:59:11.040Z,90.00
2018-06-03T21:01:38.141Z,90.71
2018-06-03T21:04:05.192Z,89.82
2018-06-03T21:06:32.234Z,90.22
2018-06-03T21:08:59.428Z,89.68
2018-06-03T21:11:26.445Z,90.43
2018-06-03T21:13:53.466Z,89.99
2018-06-03T21:16:20.473Z,90.10
2018-06-03T21:18:47.500Z,90.20
2018-06-03T21:21:14.613Z,90.40
2018-06-03T21:23:41.843Z,90.88
2018-06-03T21:26:08.896Z,91.15
2018-06-03T21:28:36.710Z,91.31
2018-06-03T21:31:04.095Z,92.72
2018-06-03T21:33:31.373Z,91.81
2018-06-03T21:35:58.385Z,91.94
2018-06-03T21:38:25.409Z,92.14
2018-06-03T21:40:52.521Z,93.07
2018-06-03T21:43:19.673Z,93.10
2018-06-03T21:45:46.692Z,93.14
2018-06-03T21:48:13.707Z,93.31
2018-06-03T21:50:40.802Z,93.45
2018-06-03T21:53:07.848Z,94.34
2018-06-03T21:55:34.966Z,94.99
2018-06-03T21:58:02.057Z,94.77
2018-06-03T22:00:29.186Z,95.05
2018-06-03T22:02:56.308Z,95.04
2018-06-03T22:05:23.319Z,95.03
2018-06-03T22:07:50.325Z,95.42
2018-06-03T22:10:17.357Z,95.36
2018-06-03T22:12:44.370Z,96.11
2018-06-03T22:15:11.465Z,95.85
2018-06-03T22:17:38.487Z,96.07
2018-06-03T22:20:05.500Z,96.12
2018-06-03T22:22:32.592Z,96.18
2018-06-03T22:24:59.597Z,96.41
2018-06-03T22:27:26.617Z,97.42
2018-06-03T22:29:53.633Z,97.60
2018-06-03T22:32:20.726Z,97.60
2018-06-03T22:34:47.982Z,97.40
2018-06-03T22:37:14.979Z,97.63
2018-06-03T22:39:42.002Z,97.81
2018-06-03T22:42:09.016Z,99.38
2018-06-03T22:44:36.163Z,99.98
2018-06-03T22:47:03.140Z,99.31
2018-06-03T22:49:30.252Z,99.45
2018-06-03T22:51:57.281Z,99.86
2018-06-03T22:54:24.285Z,100.00
2018-06-03T22:57:00.727Z,99.85
2018-06-03T22:59:27.817Z,100.00
2018-06-03T23:01:54.993Z,100.00
2018-06-03T23:04:22.009Z,100.00
2018-06-03T23:06:49.101Z,100.00
2018-06-03T23:09:16.125Z,100.00
2018-06-03T23:11:43.158Z,100.00
2018-06-03T23:14:10.252Z,100.00
2018-06-03T23:16:37.329Z,100.00
2018-06-03T23:19:04.378Z,100.00
2018-06-03T23:21:31.406Z,100.00
2018-06-03T23:23:58.412Z,100.00
2018-06-03T23:26:25.509Z,100.00
2018-06-03T23:28:52.740Z,100.00
2018-06-03T23:31:19.736Z,100.00
2018-06-03T23:33:46.827Z,100.00
2018-06-03T23:36:13.844Z,100.00
2018-06-03T23:38:40.901Z,100.00
2018-06-03T23:41:07.992Z,100.00
2018-06-03T23:43:35.009Z,100.00
2018-06-03T23:46:02.010Z,100.00
2018-06-03T23:48:29.502Z,100.00
2018-06-03T23:50:56.517Z,100.00
2018-06-03T23:53:23.530Z,100.00
2018-06-03T23:55:50.617Z,100.00
2018-06-03T23:58:17.636Z,100.00
